createdAt,value
2022-10-03T00:00:15.335Z,28.23
2022-10-03T00:03:13.717Z,27.63
2022-10-03T00:05:42.254Z,16.60
2022-10-03T00:08:22.452Z,25.25
2022-10-03T00:10:53.201Z,1.65
2022-10-03T00:13:30.123Z,1.38
2022-10-03T00:16:10.013Z,0.75
2022-10-03T00:18:50.026Z,2.05
2022-10-03T00:21:45.323Z,2.50
2022-10-03T00:24:13.036Z,20.60
2022-10-03T00:26:51.040Z,21.77
2022-10-03T00:29:58.478Z,15.48
2022-10-03T00:33:12.273Z,20.98
2022-10-03T00:36:03.010Z,18.25
2022-10-03T00:38:39.789Z,14.13
2022-10-03T00:41:22.067Z,11.50
2022-10-03T00:44:46.617Z,15.00
2022-10-03T00:47:25.304Z,21.25
2022-10-03T00:50:20.321Z,16.35
2022-10-03T00:52:59.711Z,9.55
2022-10-03T00:55:47.994Z,3.97
2022-10-03T00:58:41.864Z,6.38
2022-10-03T01:01:45.732Z,3.25
2022-10-03T01:04:47.070Z,1.65
2022-10-03T01:07:51.145Z,2.95
2022-10-03T01:10:33.187Z,2.90
2022-10-03T01:13:28.280Z,3.70
2022-10-03T01:16:13.365Z,2.65
2022-10-03T01:19:04.902Z,7.00
2022-10-03T01:21:46.810Z,1.60
2022-10-03T01:24:28.158Z,3.38
2022-10-03T01:26:57.467Z,3.88
2022-10-03T01:29:44.625Z,2.58
2022-10-03T01:32:54.147Z,5.88
2022-10-03T01:35:27.859Z,3.58
2022-10-03T01:38:34.225Z,7.97
2022-10-03T01:41:11.973Z,1.80
2022-10-03T01:43:48.927Z,2.38
2022-10-03T01:46:17.423Z,1.38
2022-10-03T01:48:51.378Z,1.02
2022-10-03T01:51:46.052Z,1.58
2022-10-03T01:54:40.268Z,1.63
2022-10-03T01:57:10.594Z,1.13
2022-10-03T01:59:47.625Z,1.77
2022-10-03T02:02:41.394Z,2.45
2022-10-03T02:05:15.557Z,1.75
2022-10-03T02:07:52.588Z,1.90
2022-10-03T02:10:56.723Z,3.97
2022-10-03T02:13:40.096Z,5.65
2022-10-03T02:16:46.145Z,7.60
2022-10-03T02:19:29.975Z,8.52
2022-10-03T02:22:00.754Z,16.17
2022-10-03T02:24:31.715Z,20.17
2022-10-03T02:27:14.251Z,16.02
2022-10-03T02:32:19.405Z,13.57
2022-10-03T02:34:47.333Z,12.43
2022-10-03T02:37:21.102Z,11.80
2022-10-03T02:40:26.384Z,2.35
2022-10-03T02:43:00.181Z,1.85
2022-10-03T02:45:45.276Z,3.28
2022-10-03T02:48:32.681Z,19.67
2022-10-03T02:51:21.908Z,2.08
2022-10-03T02:53:49.769Z,2.38
2022-10-03T02:56:26.520Z,6.30
2022-10-03T02:59:07.025Z,17.00
2022-10-03T03:01:37.979Z,12.27
2022-10-03T03:04:30.161Z,3.00
2022-10-03T03:07:00.908Z,24.00
2022-10-03T03:10:05.832Z,8.55
2022-10-03T03:13:04.623Z,14.45
2022-10-03T03:15:44.825Z,22.35
2022-10-03T03:18:12.603Z,14.25
2022-10-03T03:21:04.028Z,17.08
2022-10-03T03:23:41.691Z,3.15
2022-10-03T03:26:29.023Z,5.13
2022-10-03T03:29:30.925Z,1.30
2022-10-03T03:32:20.350Z,1.52
2022-10-03T03:34:54.166Z,3.08
2022-10-03T03:37:27.754Z,2.85
2022-10-03T03:40:04.368Z,1.58
2022-10-03T03:42:50.578Z,2.53
2022-10-03T03:45:43.504Z,2.78
2022-10-03T03:48:23.603Z,1.33
2022-10-03T03:51:06.619Z,1.08
2022-10-03T03:53:46.584Z,2.13
2022-10-03T03:56:36.680Z,5.05
2022-10-03T03:59:30.559Z,1.00
2022-10-03T04:02:13.596Z,1.35
2022-10-03T04:05:12.831Z,1.08
2022-10-03T04:07:58.870Z,7.43
2022-10-03T04:10:26.695Z,3.60
2022-10-03T04:13:19.792Z,1.48
2022-10-03T04:15:50.489Z,2.35
2022-10-03T04:18:46.440Z,1.65
2022-10-03T04:21:18.938Z,5.40
2022-10-03T04:24:14.509Z,1.90
2022-10-03T04:26:54.371Z,1.67
2022-10-03T04:29:40.686Z,2.15
2022-10-03T04:32:29.737Z,1.42
2022-10-03T04:35:09.659Z,1.33
2022-10-03T04:37:44.649Z,2.22
2022-10-03T04:40:28.251Z,4.75
2022-10-03T04:43:34.998Z,2.28
2022-10-03T04:46:10.508Z,2.13
2022-10-03T04:48:58.914Z,1.52
2022-10-03T04:51:32.546Z,2.17
2022-10-03T04:54:18.668Z,3.80
2022-10-03T04:57:00.115Z,1.55
2022-10-03T04:59:36.733Z,1.45
2022-10-03T05:02:04.483Z,2.63
2022-10-03T05:04:43.610Z,2.63
2022-10-03T05:07:29.596Z,3.42
2022-10-03T05:10:18.204Z,5.90
2022-10-03T05:12:55.417Z,4.35
2022-10-03T05:15:42.402Z,3.50
2022-10-03T05:18:30.106Z,7.25
2022-10-03T05:20:57.761Z,4.15
2022-10-03T05:23:55.350Z,7.40
2022-10-03T05:26:50.571Z,6.63
2022-10-03T05:29:28.293Z,6.95
2022-10-03T05:32:00.152Z,5.60
2022-10-03T05:34:36.650Z,5.40
2022-10-03T05:37:10.658Z,4.78
2022-10-03T05:39:57.245Z,7.10
2022-10-03T05:42:36.137Z,9.07
2022-10-03T05:45:21.680Z,10.93
2022-10-03T05:47:52.955Z,5.57
2022-10-03T05:50:48.646Z,11.82
2022-10-03T05:53:29.980Z,11.13
2022-10-03T05:56:26.500Z,7.75
2022-10-03T05:59:24.293Z,7.57
2022-10-03T06:02:22.297Z,14.63
2022-10-03T06:05:08.453Z,7.88
2022-10-03T06:08:13.186Z,12.27
2022-10-03T06:10:53.751Z,8.07
2022-10-03T06:13:52.098Z,16.25
2022-10-03T06:16:43.718Z,15.55
2022-10-03T06:19:31.420Z,11.27
2022-10-03T06:22:34.943Z,10.57
2022-10-03T06:25:24.834Z,9.93
2022-10-03T06:28:12.209Z,6.55
2022-10-03T06:30:48.359Z,5.47
2022-10-03T06:33:34.453Z,5.43
2022-10-03T06:36:27.298Z,8.23
2022-10-03T06:39:22.522Z,7.05
2022-10-03T06:42:24.236Z,16.52
2022-10-03T06:45:38.241Z,18.20
2022-10-03T06:48:17.254Z,10.25
2022-10-03T06:51:07.728Z,12.05
2022-10-03T06:53:57.836Z,15.02
2022-10-03T06:56:25.602Z,13.65
2022-10-03T06:59:09.321Z,11.02
2022-10-03T07:02:17.560Z,6.93
2022-10-03T07:05:14.642Z,8.27
2022-10-03T07:08:16.102Z,6.88
2022-10-03T07:10:44.373Z,10.00
2022-10-03T07:13:33.594Z,10.43
2022-10-03T07:16:31.363Z,12.25
2022-10-03T07:19:02.403Z,15.50
2022-10-03T07:21:45.514Z,10.90
2022-10-03T07:24:48.301Z,12.45
2022-10-03T07:27:17.100Z,11.48
2022-10-03T07:29:54.885Z,11.63
2022-10-03T07:32:25.871Z,10.63
2022-10-03T07:35:12.420Z,15.60
2022-10-03T07:38:25.939Z,13.15
2022-10-03T07:44:10.183Z,9.70
2022-10-03T07:46:37.781Z,14.82
2022-10-03T07:49:07.293Z,11.38
2022-10-03T07:52:11.477Z,10.57
2022-10-03T07:54:42.088Z,14.77
2022-10-03T07:57:16.090Z,13.35
2022-10-03T07:59:50.225Z,15.75
2022-10-03T08:02:56.164Z,13.10
2022-10-03T08:06:05.658Z,12.35
2022-10-03T08:08:58.562Z,10.80
2022-10-03T08:15:35.012Z,6.43
2022-10-03T08:18:12.404Z,12.10
2022-10-03T08:20:56.635Z,15.85
2022-10-03T08:23:24.876Z,14.57
2022-10-03T08:26:20.502Z,19.85
2022-10-03T08:29:28.224Z,11.15
2022-10-03T08:32:15.733Z,15.60
2022-10-03T08:34:56.068Z,12.63
2022-10-03T08:37:30.075Z,11.38
2022-10-03T08:39:57.941Z,13.70
2022-10-03T08:42:47.886Z,12.00
2022-10-03T08:45:47.351Z,9.05
2022-10-03T08:48:44.981Z,11.95
2022-10-03T08:51:37.079Z,7.63
2022-10-03T08:54:16.630Z,11.38
2022-10-03T08:56:45.312Z,32.53
2022-10-03T08:59:26.735Z,24.70
2022-10-03T09:02:15.957Z,31.00
2022-10-03T09:04:46.682Z,30.45
2022-10-03T09:07:42.956Z,24.45
2022-10-03T09:11:04.208Z,30.00
2022-10-03T09:14:13.208Z,32.42
2022-10-03T09:17:03.261Z,5.97
2022-10-03T09:19:41.809Z,6.85
2022-10-03T09:22:37.283Z,5.07
2022-10-03T09:25:29.879Z,5.03
2022-10-03T09:28:14.068Z,4.97
2022-10-03T09:31:05.223Z,5.68
2022-10-03T09:33:58.855Z,9.38
2022-10-03T09:37:04.854Z,7.95
2022-10-03T09:39:57.817Z,9.40
2022-10-03T09:43:11.850Z,8.38
2022-10-03T09:45:57.556Z,6.22
2022-10-03T09:48:45.040Z,7.65
2022-10-03T09:51:39.989Z,5.65
2022-10-03T09:54:26.801Z,3.53
2022-10-03T09:57:22.734Z,5.50
2022-10-03T10:00:36.868Z,7.28
2022-10-03T10:03:23.268Z,5.10
2022-10-03T10:06:03.114Z,6.03
2022-10-03T10:08:55.411Z,7.18
2022-10-03T10:11:23.319Z,7.63
2022-10-03T10:14:08.735Z,3.92
2022-10-03T10:16:42.445Z,8.25
2022-10-03T10:19:43.694Z,6.57
2022-10-03T10:22:11.468Z,7.07
2022-10-03T10:24:54.333Z,8.45
2022-10-03T10:27:22.069Z,4.78
2022-10-03T10:30:11.859Z,8.85
2022-10-03T10:33:13.576Z,7.68
2022-10-03T10:36:22.683Z,6.38
2022-10-03T10:38:53.137Z,5.90
2022-10-03T10:41:59.656Z,13.18
2022-10-03T10:45:04.306Z,6.28
2022-10-03T10:47:41.471Z,12.50
2022-10-03T10:50:18.399Z,6.68
2022-10-03T10:53:10.116Z,17.02
2022-10-03T10:56:09.687Z,10.95
2022-10-03T10:59:16.309Z,7.18
2022-10-03T11:02:05.628Z,9.02
2022-10-03T11:05:29.671Z,6.63
2022-10-03T11:08:18.098Z,8.20
2022-10-03T11:11:10.290Z,4.68
2022-10-03T11:13:59.590Z,6.35
2022-10-03T11:16:48.422Z,6.05
2022-10-03T11:19:32.273Z,3.88
2022-10-03T11:22:34.715Z,6.18
2022-10-03T11:25:20.962Z,8.15
2022-10-03T11:27:49.390Z,6.88
2022-10-03T11:30:26.776Z,5.72
2022-10-03T11:32:57.673Z,5.72
2022-10-03T11:35:48.689Z,6.25
2022-10-03T11:38:16.499Z,5.05
2022-10-03T11:40:59.416Z,5.22
2022-10-03T11:43:27.105Z,5.22
2022-10-03T11:46:26.739Z,7.45
2022-10-03T11:49:16.599Z,6.78
2022-10-03T11:52:31.545Z,8.40
2022-10-03T11:55:30.042Z,9.02
2022-10-03T11:58:36.862Z,11.70
2022-10-03T12:01:41.986Z,5.97
2022-10-03T12:04:34.733Z,7.80
2022-10-03T12:07:36.243Z,4.15
2022-10-03T12:10:12.918Z,5.90
2022-10-03T12:12:51.518Z,3.75
2022-10-03T12:15:40.906Z,6.43
2022-10-03T12:18:34.565Z,5.80
2022-10-03T12:21:24.630Z,7.70
2022-10-03T12:23:59.885Z,8.88
2022-10-03T12:26:43.467Z,6.95
2022-10-03T12:29:18.470Z,9.82
2022-10-03T12:32:17.676Z,3.92
2022-10-03T12:35:20.130Z,7.35
2022-10-03T12:38:17.695Z,7.13
2022-10-03T12:40:55.243Z,5.22
2022-10-03T12:43:50.241Z,6.45
2022-10-03T12:46:57.788Z,4.75
2022-10-03T12:49:30.773Z,8.52
2022-10-03T12:52:02.217Z,3.83
2022-10-03T12:54:30.022Z,8.13
2022-10-03T12:57:22.988Z,5.07
2022-10-03T13:00:23.179Z,6.72
2022-10-03T13:03:20.098Z,5.57
2022-10-03T13:06:12.859Z,8.63
2022-10-03T13:08:49.528Z,6.03
2022-10-03T13:11:48.838Z,14.85
2022-10-03T13:14:16.388Z,5.07
2022-10-03T13:17:03.262Z,4.43
2022-10-03T13:19:51.644Z,6.68
2022-10-03T13:22:19.297Z,4.20
2022-10-03T13:25:24.938Z,6.30
2022-10-03T13:28:25.216Z,4.22
2022-10-03T13:31:16.140Z,4.88
2022-10-03T13:33:56.067Z,15.13
2022-10-03T13:36:55.080Z,6.55
2022-10-03T13:39:24.135Z,7.50
2022-10-03T13:42:33.877Z,7.00
2022-10-03T13:45:28.866Z,4.93
2022-10-03T13:48:04.946Z,3.78
2022-10-03T13:50:58.415Z,5.72
2022-10-03T13:54:00.178Z,6.45
2022-10-03T13:56:52.149Z,4.07
2022-10-03T13:59:25.179Z,3.67
2022-10-03T14:02:05.056Z,3.47
2022-10-03T14:04:56.893Z,4.13
2022-10-03T14:07:48.398Z,8.02
2022-10-03T14:10:35.934Z,7.25
2022-10-03T14:13:16.245Z,4.68
2022-10-03T14:16:16.898Z,3.72
2022-10-03T14:18:57.493Z,6.25
2022-10-03T14:22:01.014Z,3.95
2022-10-03T14:24:37.160Z,8.20
2022-10-03T14:27:28.704Z,4.68
2022-10-03T14:30:19.836Z,9.18
2022-10-03T14:33:23.815Z,8.10
2022-10-03T14:36:12.920Z,2.58
2022-10-03T14:39:03.740Z,2.40
2022-10-03T14:41:34.353Z,1.60
2022-10-03T14:44:13.409Z,3.22
2022-10-03T14:47:00.832Z,3.70
2022-10-03T14:49:57.875Z,7.30
2022-10-03T14:52:27.930Z,5.28
2022-10-03T14:54:58.969Z,1.58
2022-10-03T14:57:53.199Z,3.30
2022-10-03T15:00:29.608Z,4.82
2022-10-03T15:02:57.117Z,3.15
2022-10-03T15:06:02.637Z,1.52
2022-10-03T15:08:57.966Z,3.13
2022-10-03T15:11:32.441Z,1.85
2022-10-03T15:14:09.270Z,4.07
2022-10-03T15:16:49.635Z,3.55
2022-10-03T15:19:26.363Z,10.27
2022-10-03T15:21:54.249Z,1.40
2022-10-03T15:24:28.267Z,1.48
2022-10-03T15:27:01.785Z,1.58
2022-10-03T15:29:31.717Z,2.25
2022-10-03T15:31:59.545Z,5.25
2022-10-03T15:34:38.895Z,1.83
2022-10-03T15:37:19.263Z,2.50
2022-10-03T15:39:48.902Z,3.42
2022-10-03T15:42:21.054Z,1.10
2022-10-03T15:44:54.150Z,1.05
2022-10-03T15:47:26.897Z,2.08
2022-10-03T15:50:29.014Z,2.88
2022-10-03T15:53:34.490Z,2.95
2022-10-03T15:56:22.373Z,2.03
2022-10-03T15:58:56.337Z,3.35
2022-10-03T16:01:27.731Z,1.65
2022-10-03T16:03:58.326Z,1.50
2022-10-03T16:06:48.166Z,1.73
2022-10-03T16:09:15.469Z,0.85
2022-10-03T16:11:56.253Z,1.80
2022-10-03T16:14:42.444Z,1.40
2022-10-03T16:17:29.137Z,3.47
2022-10-03T16:20:06.812Z,1.42
2022-10-03T16:22:53.065Z,0.63
2022-10-03T16:25:26.775Z,2.05
2022-10-03T16:28:12.365Z,1.00
2022-10-03T16:30:56.842Z,1.73
2022-10-03T16:33:57.911Z,0.95
2022-10-03T16:36:25.969Z,0.82
2022-10-03T16:39:02.072Z,0.82
2022-10-03T16:41:35.204Z,0.93
2022-10-03T16:44:19.092Z,2.08
2022-10-03T16:46:47.059Z,1.00
2022-10-03T16:49:44.819Z,0.90
2022-10-03T16:52:21.528Z,0.80
2022-10-03T16:54:53.617Z,0.85
2022-10-03T16:57:28.090Z,0.77
2022-10-03T16:59:56.326Z,3.35
2022-10-03T17:02:28.887Z,1.15
2022-10-03T17:05:05.178Z,1.05
2022-10-03T17:07:49.938Z,0.73
2022-10-03T17:10:38.202Z,2.10
2022-10-03T17:13:16.885Z,0.63
2022-10-03T17:16:02.131Z,0.60
2022-10-03T17:18:40.739Z,0.70
2022-10-03T17:21:29.025Z,0.93
2022-10-03T17:24:34.566Z,0.85
2022-10-03T17:27:09.257Z,0.82
2022-10-03T17:29:50.787Z,1.73
2022-10-03T17:32:25.364Z,0.68
2022-10-03T17:35:17.541Z,0.45
2022-10-03T17:37:54.493Z,0.63
2022-10-03T17:40:29.131Z,0.63
2022-10-03T17:42:56.717Z,1.15
2022-10-03T17:45:50.378Z,0.77
2022-10-03T17:48:20.741Z,0.70
2022-10-03T17:51:14.168Z,1.77
2022-10-03T17:53:48.104Z,1.15
2022-10-03T17:56:21.165Z,0.25
2022-10-03T17:58:52.277Z,0.40
2022-10-03T18:01:25.482Z,1.77
2022-10-03T18:03:58.886Z,0.93
2022-10-03T18:06:54.973Z,1.58
2022-10-03T18:09:40.731Z,0.73
2022-10-03T18:12:17.007Z,1.10
2022-10-03T18:17:23.214Z,0.80
2022-10-03T18:20:21.570Z,0.88
2022-10-03T18:22:55.872Z,0.50
2022-10-03T18:26:18.474Z,0.75
2022-10-03T18:29:18.800Z,0.57
2022-10-03T18:31:57.622Z,0.70
2022-10-03T18:34:34.575Z,0.30
2022-10-03T18:37:26.904Z,0.57
2022-10-03T18:39:57.075Z,0.65
2022-10-03T18:42:30.071Z,0.20
2022-10-03T18:44:58.371Z,0.30
2022-10-03T18:47:41.480Z,0.00
2022-10-03T18:50:34.134Z,0.38
2022-10-03T18:53:27.042Z,0.38
2022-10-03T18:56:13.417Z,0.17
2022-10-03T18:58:51.599Z,0.32
2022-10-03T19:01:34.614Z,0.30
2022-10-03T19:04:08.788Z,0.30
2022-10-03T19:06:41.416Z,0.47
2022-10-03T19:09:13.338Z,0.45
2022-10-03T19:11:50.505Z,0.55
2022-10-03T19:14:34.588Z,0.20
2022-10-03T19:17:32.106Z,0.30
2022-10-03T19:20:11.338Z,0.50
2022-10-03T19:22:41.153Z,0.45
2022-10-03T19:25:19.182Z,0.22
2022-10-03T19:27:52.424Z,0.40
2022-10-03T19:30:28.148Z,0.47
2022-10-03T19:33:09.435Z,0.25
2022-10-03T19:35:43.172Z,0.20
2022-10-03T19:38:21.193Z,0.50
2022-10-03T19:41:06.967Z,0.40
2022-10-03T19:43:42.118Z,0.50
2022-10-03T19:46:20.431Z,0.13
2022-10-03T19:49:21.356Z,0.40
2022-10-03T19:51:49.830Z,0.73
2022-10-03T19:54:43.709Z,0.60
2022-10-03T19:57:20.419Z,0.30
2022-10-03T19:59:51.449Z,0.30
2022-10-03T20:02:24.837Z,0.60
2022-10-03T20:04:53.943Z,0.50
2022-10-03T20:07:41.523Z,0.85
2022-10-03T20:10:47.517Z,0.40
2022-10-03T20:13:15.564Z,0.55
2022-10-03T20:15:48.907Z,0.40
2022-10-03T20:18:23.636Z,0.50
2022-10-03T20:20:57.094Z,0.40
2022-10-03T20:23:27.764Z,0.10
2022-10-03T20:26:10.103Z,0.30
2022-10-03T20:29:02.623Z,0.30
2022-10-03T20:31:32.600Z,0.68
2022-10-03T20:36:32.686Z,0.45
2022-10-03T20:39:05.449Z,0.57
2022-10-03T20:42:14.850Z,0.43
2022-10-03T20:45:02.571Z,0.68
2022-10-03T20:47:49.462Z,0.40
2022-10-03T20:50:31.993Z,0.32
2022-10-03T20:53:01.898Z,0.55
2022-10-03T20:55:38.383Z,0.40
2022-10-03T20:58:22.442Z,0.20
2022-10-03T21:00:59.548Z,0.38
2022-10-03T21:03:34.371Z,0.10
2022-10-03T21:06:05.080Z,0.30
2022-10-03T21:08:38.567Z,0.20
2022-10-03T21:11:16.271Z,0.63
2022-10-03T21:13:49.874Z,0.20
2022-10-03T21:16:21.907Z,0.25
2022-10-03T21:18:51.731Z,0.40
2022-10-03T21:21:33.095Z,0.43
2022-10-03T21:24:15.256Z,0.40
2022-10-03T21:26:49.148Z,0.60
2022-10-03T21:29:26.841Z,0.32
2022-10-03T21:31:57.490Z,0.50
2022-10-03T21:34:32.384Z,0.57
2022-10-03T21:37:15.088Z,0.40
2022-10-03T21:39:55.228Z,0.55
2022-10-03T21:42:36.153Z,0.45
2022-10-03T21:45:12.378Z,0.28
2022-10-03T21:50:19.602Z,0.47
2022-10-03T21:53:21.323Z,0.30
2022-10-03T21:55:53.163Z,0.40
2022-10-03T21:58:39.381Z,0.50
2022-10-03T22:01:13.499Z,0.60
2022-10-03T22:03:59.473Z,0.30
2022-10-03T22:06:43.651Z,0.50
2022-10-03T22:09:15.512Z,0.40
2022-10-03T22:11:53.766Z,0.63
2022-10-03T22:14:27.393Z,0.43
2022-10-03T22:17:00.085Z,0.35
2022-10-03T22:19:36.352Z,0.30
2022-10-03T22:25:00.874Z,0.25
2022-10-03T22:27:38.913Z,0.50
2022-10-03T22:30:10.411Z,0.28
2022-10-03T22:33:14.964Z,0.32
2022-10-03T22:35:51.397Z,0.30
2022-10-03T22:38:24.738Z,0.20
2022-10-03T22:40:54.614Z,0.40
2022-10-03T22:43:23.724Z,0.22
2022-10-03T22:45:53.381Z,0.40
2022-10-03T22:48:30.222Z,0.20
2022-10-03T22:50:58.276Z,0.28
2022-10-03T22:53:30.347Z,0.22
2022-10-03T22:55:59.775Z,0.35
2022-10-03T22:58:30.961Z,0.40
2022-10-03T23:01:03.217Z,0.40
2022-10-03T23:03:34.288Z,0.03
2022-10-03T23:06:24.772Z,0.20
2022-10-03T23:09:04.700Z,0.25
2022-10-03T23:11:34.797Z,0.25
2022-10-03T23:17:05.495Z,0.28
2022-10-03T23:20:06.341Z,0.38
2022-10-03T23:22:37.399Z,0.28
2022-10-03T23:25:18.077Z,0.38
2022-10-03T23:28:03.567Z,0.45
2022-10-03T23:30:34.124Z,0.40
2022-10-03T23:33:01.732Z,0.38
2022-10-03T23:35:32.219Z,0.32
2022-10-03T23:38:00.889Z,0.30
2022-10-03T23:40:31.623Z,0.40
2022-10-03T23:43:18.843Z,0.25
2022-10-03T23:45:47.052Z,0.22
2022-10-03T23:48:18.661Z,0.43
2022-10-03T23:51:01.655Z,0.30
2022-10-03T23:53:29.897Z,0.38
2022-10-03T23:56:02.365Z,0.95
2022-10-03T23:58:35.241Z,0.50
